Time;durP1;ratioP1;P1;durP2;ratioP2;P2;SDS_P1;SDS_P2;PMS_P1;PMS_P2;Temp;Humidity;BMP_temperature;BMP_pressure;BME280_temperature;BME280_humidity;BME280_pressure;Samples;Min_cycle;Max_cycle;Signal;HPM_P1;HPM_P2
2022/07/07 00:03:08;;;;;;;;;;;;;;;23.38;46.05;102090.94;6273593;22;19919;-85
2022/07/07 00:09:19;;;;;;;;;;;;;;;23.38;46.21;102085.69;6222949;22;19911;-84
2022/07/07 00:12:16;;;;;;;;;;;;;;;23.38;45.93;102086.53;6271241;23;19892;-84
2022/07/07 00:44:36;;;;;;;;;;;;;;;23.34;46.29;102062.97;6125121;23;19909;-85
2022/07/07 00:53:34;;;;;;;;;;;;;;;23.36;46.11;102053.31;6214016;23;19924;-85
2022/07/07 00:59:13;;;;;;;;;;;;;;;23.35;46.33;102051.59;6248040;22;19904;-85
2022/07/07 01:08:03;;;;;;;;;;;;;;;23.34;46.18;102044.59;6232428;22;19922;-85
2022/07/07 01:11:07;;;;;;;;;;;;;;;23.36;46.26;102040.19;6199036;23;19915;-85
2022/07/07 01:23:01;;;;;;;;;;;;;;;23.34;45.92;102015.69;6275643;22;19960;-85
2022/07/07 01:26:07;;;;;;;;;;;;;;;23.35;45.99;102007.81;6240852;22;19935;-85
2022/07/07 01:37:50;;;;;;;;;;;;;;;23.33;45.80;102012.22;6183245;23;19928;-85
2022/07/07 02:29:59;;;;;;;;;;;;;;;23.24;46.21;102014.97;6304171;22;19918;-85
2022/07/07 02:41:44;;;;;;;;;;;;;;;23.24;46.03;102009.72;6305642;22;19914;-85
2022/07/07 02:44:16;;;;;;;;;;;;;;;23.26;46.08;102014.97;6252411;22;19915;-84
2022/07/07 02:56:14;;;;;;;;;;;;;;;23.24;45.89;102012.34;6305387;22;19914;-84
2022/07/07 03:05:13;;;;;;;;;;;;;;;23.24;46.05;102014.13;6182505;23;19900;-85
2022/07/07 03:16:55;;;;;;;;;;;;;;;23.24;46.12;102014.13;6195766;22;19926;-84
2022/07/07 03:19:41;;;;;;;;;;;;;;;23.23;46.03;102015.84;6243605;23;19900;-84
2022/07/07 03:25:11;;;;;;;;;;;;;;;23.21;46.16;102030.75;6274200;22;19906;-85
2022/07/07 03:27:41;;;;;;;;;;;;;;;23.22;46.00;102035.16;6193494;23;19915;-85
2022/07/07 03:31:01;;;;;;;;;;;;;;;23.21;46.22;102038.66;6181624;23;19901;-85
2022/07/07 03:33:48;;;;;;;;;;;;;;;23.19;45.87;102040.41;6110381;23;19928;-85
2022/07/07 03:39:43;;;;;;;;;;;;;;;23.17;46.10;102056.22;6182210;23;19898;-85
2022/07/07 03:42:30;;;;;;;;;;;;;;;23.18;45.77;102049.22;6176693;23;19917;-85
2022/07/07 03:50:16;;;;;;;;;;;;;;;23.16;45.18;102054.47;6263062;22;19910;-84
2022/07/07 03:59:02;;;;;;;;;;;;;;;23.17;45.23;102063.25;6273883;22;19938;-84
2022/07/07 04:05:06;;;;;;;;;;;;;;;23.16;45.23;102062.34;6153398;23;19916;-84
2022/07/07 04:07:51;;;;;;;;;;;;;;;23.16;45.01;102056.22;6125932;23;19924;-85
2022/07/07 04:36:01;;;;;;;;;;;;;;;23.19;44.78;102092.94;6230120;22;19920;-80
2022/07/07 04:46:43;;;;;;;;;;;;;;;23.13;44.80;102103.56;6251511;22;19927;-85
2022/07/07 04:49:14;;;;;;;;;;;;;;;22.92;45.27;102096.75;6248384;23;19927;-86
2022/07/07 05:14:07;;;;;;;;;;;;;;;22.68;45.74;102146.00;6240991;22;19904;-86
2022/07/07 05:56:59;;;;;;;;;;;;;;;22.47;44.49;102188.19;6086176;23;19917;-80
2022/07/07 05:59:26;;;;;;;;;;;;;;;22.46;44.50;102192.56;6199701;23;19908;-81
2022/07/07 06:11:20;;;;;;;;;;;;;;;22.52;43.90;102200.41;6241174;23;19922;-81
2022/07/07 06:13:56;;;;;;;;;;;;;;;22.62;43.76;102214.28;6239805;23;19908;-81
2022/07/07 06:16:38;;;;;;;;;;;;;;;22.69;43.42;102210.75;6233633;23;19908;-81
2022/07/07 06:19:08;;;;;;;;;;;;;;;22.74;43.35;102224.69;6233023;23;19983;-81
2022/07/07 06:21:39;;;;;;;;;;;;;;;22.77;43.31;102216.75;6175665;23;19917;-81
2022/07/07 06:24:23;;;;;;;;;;;;;;;22.76;43.73;102225.53;6175021;23;19943;-84
2022/07/07 06:27:15;;;;;;;;;;;;;;;22.77;43.70;102223.78;6208255;23;19920;-81
2022/07/07 06:30:01;;;;;;;;;;;;;;;22.78;43.81;102241.28;6235502;23;19896;-81
2022/07/07 06:50:52;;;;;;;;;;;;;;;22.99;44.00;102256.84;6246317;22;19926;-81
2022/07/07 06:53:19;;;;;;;;;;;;;;;23.02;43.96;102258.59;6265396;23;19907;-81
2022/07/07 06:55:49;;;;;;;;;;;;;;;22.95;44.28;102248.97;6269207;23;19959;-81
2022/07/07 06:58:15;;;;;;;;;;;;;;;22.96;43.73;102259.47;6246167;23;19943;-80
2022/07/07 07:01:06;;;;;;;;;;;;;;;23.05;43.43;102253.28;6266231;23;19915;-82
2022/07/07 07:03:45;;;;;;;;;;;;;;;23.14;43.56;102257.56;6243942;23;19892;-81
2022/07/07 07:06:19;;;;;;;;;;;;;;;23.09;43.70;102262.00;6266419;23;19924;-81
2022/07/07 07:09:11;;;;;;;;;;;;;;;23.11;43.41;102261.09;6173842;23;19927;-82
2022/07/07 07:11:58;;;;;;;;;;;;;;;23.10;43.54;102259.34;6134553;23;19908;-81
2022/07/07 07:14:27;;;;;;;;;;;;;;;23.13;43.41;102261.09;6207517;23;19944;-81
2022/07/07 07:17:02;;;;;;;;;;;;;;;23.10;43.72;102272.47;6183947;23;19908;-81
2022/07/07 07:19:48;;;;;;;;;;;;;;;23.24;43.78;102274.13;6209654;23;19899;-81
2022/07/07 07:22:20;;;;;;;;;;;;;;;23.18;44.37;102275.03;6207300;23;19956;-82
2022/07/07 07:24:46;;;;;;;;;;;;;;;23.14;43.83;102292.56;6177833;23;19916;-81
2022/07/07 07:27:11;;;;;;;;;;;;;;;23.11;43.50;102283.88;6159674;23;19940;-80
2022/07/07 07:29:37;;;;;;;;;;;;;;;23.10;43.67;102288.22;6157148;23;19912;-81
2022/07/07 07:32:09;;;;;;;;;;;;;;;23.10;43.34;102288.22;6181939;23;19915;-80
2022/07/07 07:34:43;;;;;;;;;;;;;;;23.11;43.46;102291.75;6183060;23;19900;-81
2022/07/07 10:28:31;;;;;;;;;;;;;;;;;;;;;
2022/07/07 10:31:22;;;;;;;;;;;;;;;23.13;44.98;102544.72;6146614;23;19921;-82
2022/07/07 10:34:33;;;;;;;;;;;;;;;23.12;45.19;102548.19;6097804;23;19913;-82
2022/07/07 10:37:21;;;;;;;;;;;;;;;23.10;44.96;102563.94;6136421;23;19917;-82
2022/07/07 10:39:54;;;;;;;;;;;;;;;23.14;45.17;102568.31;6149288;23;19932;-82
2022/07/07 10:42:35;;;;;;;;;;;;;;;23.14;45.24;102565.69;6148857;23;19944;-82
2022/07/07 10:48:07;;;;;;;;;;;;;;;23.15;45.21;102588.47;6174010;23;19915;-82
2022/07/07 10:51:01;;;;;;;;;;;;;;;23.14;45.23;102583.19;6173013;23;19967;-81
2022/07/07 10:56:49;;;;;;;;;;;;;;;23.16;44.88;102603.31;6116776;23;19925;-82
2022/07/07 10:59:16;;;;;;;;;;;;;;;23.18;44.86;102598.06;6114689;23;19893;-82
2022/07/07 11:02:02;;;;;;;;;;;;;;;23.16;44.78;102605.06;6111553;23;20020;-81
2022/07/07 11:04:51;;;;;;;;;;;;;;;23.15;44.68;102598.97;6097090;23;19909;-82
2022/07/07 11:07:24;;;;;;;;;;;;;;;23.19;44.65;102611.19;6120265;23;19917;-82
2022/07/07 11:10:17;;;;;;;;;;;;;;;23.20;44.35;102614.69;6109246;23;19913;-81
2022/07/07 11:12:53;;;;;;;;;;;;;;;23.22;44.43;102614.69;6144747;23;19956;-82
2022/07/07 11:15:38;;;;;;;;;;;;;;;23.19;43.86;102618.19;6143473;23;20362;-81
2022/07/07 11:18:32;;;;;;;;;;;;;;;23.22;43.64;102617.31;6096561;23;19921;-82
2022/07/07 11:21:35;;;;;;;;;;;;;;;23.22;43.65;102620.81;6121976;23;19909;-83
2022/07/07 11:30:15;;;;;;;;;;;;;;;23.23;43.33;102632.19;6115681;23;19956;-81
2022/07/07 11:33:05;;;;;;;;;;;;;;;23.24;43.42;102626.06;6115751;23;19917;-82
2022/07/07 11:35:50;;;;;;;;;;;;;;;23.24;42.07;102631.31;6128576;23;19913;-82
2022/07/07 11:41:57;;;;;;;;;;;;;;;23.23;42.42;102646.19;6086712;23;19965;-81
2022/07/07 11:44:45;;;;;;;;;;;;;;;23.20;42.51;102649.69;6085963;23;19933;-81
2022/07/07 11:47:34;;;;;;;;;;;;;;;23.24;43.26;102662.84;6028332;23;19914;-82
2022/07/07 11:50:14;;;;;;;;;;;;;;;23.25;43.03;102670.69;6025753;23;19935;-82
2022/07/07 11:52:51;;;;;;;;;;;;;;;23.24;42.63;102670.72;6025857;23;19977;-81
2022/07/07 13:06:01;;;;;;;;;;;;;;;23.30;40.34;102752.09;6269219;22;19922;-82
2022/07/07 13:08:28;;;;;;;;;;;;;;;23.31;40.87;102743.34;6271031;23;19916;-82
2022/07/07 13:14:16;;;;;;;;;;;;;;;23.33;40.76;102752.09;6239815;23;19938;-81
2022/07/07 13:16:43;;;;;;;;;;;;;;;23.31;40.80;102765.22;6233939;23;19935;-83
2022/07/07 13:19:18;;;;;;;;;;;;;;;23.30;41.12;102752.09;6233348;23;19907;-81
2022/07/07 13:21:44;;;;;;;;;;;;;;;23.30;40.88;102754.72;6232977;23;19930;-80
2022/07/07 13:24:20;;;;;;;;;;;;;;;23.30;40.69;102755.63;6171946;23;19989;-81
2022/07/07 13:27:04;;;;;;;;;;;;;;;23.31;41.42;102770.50;6203611;23;19940;-81
2022/07/07 13:29:40;;;;;;;;;;;;;;;23.28;41.54;102766.97;6203027;23;19942;-81
2022/07/07 13:32:26;;;;;;;;;;;;;;;23.26;40.90;102759.13;6151501;23;19916;-82
2022/07/07 13:34:53;;;;;;;;;;;;;;;23.28;41.61;102767.88;6149666;23;19944;-81
2022/07/07 13:37:19;;;;;;;;;;;;;;;23.27;41.19;102775.75;6143926;23;19929;-81
2022/07/07 13:39:50;;;;;;;;;;;;;;;23.28;41.97;102777.50;6094010;23;19913;-81
2022/07/07 13:42:17;;;;;;;;;;;;;;;23.28;42.16;102782.75;6140542;23;19920;-81
2022/07/07 13:44:50;;;;;;;;;;;;;;;23.28;41.76;102793.25;6142972;23;19973;-81
2022/07/07 13:47:23;;;;;;;;;;;;;;;23.27;41.69;102791.53;6107792;23;19924;-80
2022/07/07 17:05:05;;;;;;;;;;;;;;;23.18;39.68;102915.84;6230429;22;19943;-81
2022/07/07 17:07:30;;;;;;;;;;;;;;;23.17;40.23;102917.63;6261630;23;19955;-79
2022/07/07 17:09:56;;;;;;;;;;;;;;;23.17;40.10;102920.25;6229634;23;20053;-80
2022/07/07 17:12:21;;;;;;;;;;;;;;;23.14;39.69;102917.59;6233385;23;20320;-80
2022/07/07 17:14:47;;;;;;;;;;;;;;;23.11;39.93;102928.13;6259398;23;19907;-80
2022/07/07 17:17:13;;;;;;;;;;;;;;;23.12;39.58;102929.84;6257722;23;19935;-80
2022/07/07 17:19:38;;;;;;;;;;;;;;;23.11;39.86;102932.50;6230884;23;19927;-81
2022/07/07 17:22:05;;;;;;;;;;;;;;;23.11;40.10;102932.50;6261751;23;19914;-81
2022/07/07 17:24:35;;;;;;;;;;;;;;;23.10;40.12;102931.59;6210823;23;20304;-81
2022/07/07 17:27:00;;;;;;;;;;;;;;;23.08;40.00;102935.09;6256548;23;19907;-80
2022/07/07 17:29:25;;;;;;;;;;;;;;;23.09;39.89;102934.25;6229236;23;20316;-80
2022/07/07 17:31:51;;;;;;;;;;;;;;;23.06;39.68;102932.50;6230133;23;19912;-81
2022/07/07 17:34:16;;;;;;;;;;;;;;;23.06;40.15;102929.88;6258884;23;19908;-81
2022/07/07 17:36:41;;;;;;;;;;;;;;;23.08;40.07;102938.63;6233865;23;20272;-81
2022/07/07 17:41:45;;;;;;;;;;;;;;;23.07;39.97;102936.88;6235927;23;19924;-80
2022/07/07 17:44:15;;;;;;;;;;;;;;;23.10;40.15;102938.63;6198875;23;19919;-79
2022/07/07 17:49:43;;;;;;;;;;;;;;;23.18;40.05;102952.63;6225285;23;19986;-80
2022/07/07 17:52:08;;;;;;;;;;;;;;;23.18;39.84;102956.13;6222600;23;20325;-80
2022/07/07 17:54:34;;;;;;;;;;;;;;;23.23;40.53;102950.00;6207632;23;19908;-80
2022/07/07 17:56:59;;;;;;;;;;;;;;;23.23;40.41;102947.38;6206674;23;20321;-80
2022/07/07 17:59:24;;;;;;;;;;;;;;;23.20;40.53;102951.75;6226203;23;19931;-80
2022/07/07 18:01:49;;;;;;;;;;;;;;;23.24;40.41;102946.53;6196363;23;19962;-79
2022/07/07 18:04:16;;;;;;;;;;;;;;;23.20;40.38;102948.25;6196316;23;19908;-79
2022/07/07 18:06:43;;;;;;;;;;;;;;;23.24;40.38;102957.03;6227805;23;19912;-80
2022/07/07 18:09:08;;;;;;;;;;;;;;;23.31;40.61;102958.75;6224285;23;19920;-79
2022/07/07 18:11:34;;;;;;;;;;;;;;;23.36;41.13;102954.38;6193715;23;20352;-79
2022/07/07 18:14:00;;;;;;;;;;;;;;;23.38;41.14;102956.13;6194438;23;19914;-79
2022/07/07 18:16:25;;;;;;;;;;;;;;;23.38;40.94;102957.88;6194299;23;19912;-78
2022/07/07 18:18:50;;;;;;;;;;;;;;;23.38;41.26;102955.25;6194146;23;19912;-79
2022/07/07 18:21:16;;;;;;;;;;;;;;;23.33;41.30;102963.13;6220630;23;19908;-78
2022/07/07 18:23:43;;;;;;;;;;;;;;;23.35;41.40;102965.78;6218565;23;19923;-79
2022/07/07 18:26:08;;;;;;;;;;;;;;;23.33;41.34;102960.50;6192557;23;19908;-80
2022/07/07 18:28:34;;;;;;;;;;;;;;;23.31;41.25;102956.13;6167129;23;19923;-79
2022/07/07 18:31:00;;;;;;;;;;;;;;;23.28;41.27;102962.28;6167306;23;20400;-79
2022/07/07 18:33:25;;;;;;;;;;;;;;;23.25;41.09;102974.53;6192193;23;19912;-78
2022/07/07 18:35:51;;;;;;;;;;;;;;;23.23;41.07;102969.25;6167008;23;19961;-78
2022/07/07 18:38:16;;;;;;;;;;;;;;;23.20;41.02;102985.91;6167500;23;19919;-78
2022/07/07 18:40:41;;;;;;;;;;;;;;;23.17;40.84;102983.28;6162483;23;20288;-78
2022/07/07 18:43:06;;;;;;;;;;;;;;;23.19;40.62;102993.75;6137097;23;19918;-78
2022/07/07 18:45:32;;;;;;;;;;;;;;;23.16;40.74;102993.78;6162134;23;19912;-78
2022/07/07 18:47:57;;;;;;;;;;;;;;;23.16;40.62;102993.78;6162633;23;19923;-78
2022/07/07 18:50:22;;;;;;;;;;;;;;;23.15;40.75;102998.16;6137230;23;19912;-78
2022/07/07 18:52:47;;;;;;;;;;;;;;;23.11;40.59;102993.78;6163005;23;20245;-78
2022/07/07 18:55:13;;;;;;;;;;;;;;;23.14;40.70;102999.00;6191404;23;19983;-78
2022/07/07 18:57:38;;;;;;;;;;;;;;;23.14;40.46;103004.28;6164002;23;19912;-78
2022/07/07 19:00:04;;;;;;;;;;;;;;;23.11;40.37;103000.78;6139179;23;19991;-78
2022/07/07 19:02:29;;;;;;;;;;;;;;;23.11;40.20;103004.28;6163396;23;19939;-78
2022/07/07 19:04:55;;;;;;;;;;;;;;;23.12;40.29;103006.00;6139098;23;19912;-78
2022/07/07 19:07:28;;;;;;;;;;;;;;;23.13;40.26;103001.66;6145791;23;20245;-81
2022/07/07 19:09:55;;;;;;;;;;;;;;;23.11;40.10;102995.53;6192817;23;19936;-80
2022/07/07 19:12:20;;;;;;;;;;;;;;;23.10;40.30;102997.25;6193328;23;19995;-80
2022/07/07 19:14:46;;;;;;;;;;;;;;;23.09;40.22;103000.78;6189763;23;20233;-80
2022/07/07 19:17:11;;;;;;;;;;;;;;;23.09;40.31;102992.91;6153658;23;19920;-80
2022/07/07 19:19:36;;;;;;;;;;;;;;;23.08;39.89;103009.53;6159800;23;19919;-81
2022/07/07 19:22:03;;;;;;;;;;;;;;;23.08;39.96;103004.28;6210926;23;19908;-81
2022/07/07 19:24:29;;;;;;;;;;;;;;;23.07;40.18;103013.03;6200202;23;20068;-81
2022/07/07 19:26:54;;;;;;;;;;;;;;;23.09;40.02;103016.53;6169630;23;20375;-80
2022/07/07 19:29:20;;;;;;;;;;;;;;;23.06;39.98;103016.53;6142472;23;19916;-80
2022/07/07 19:31:45;;;;;;;;;;;;;;;23.05;39.67;103030.53;6166735;23;19912;-81
2022/07/07 19:34:12;;;;;;;;;;;;;;;23.04;39.82;103028.78;6142809;23;19912;-81
2022/07/07 19:36:37;;;;;;;;;;;;;;;23.06;39.61;103031.41;6194028;23;19959;-80
2022/07/07 19:39:04;;;;;;;;;;;;;;;23.07;40.11;103030.53;6166091;23;19908;-80
2022/07/07 19:41:30;;;;;;;;;;;;;;;23.07;39.65;103033.16;6164147;23;20444;-80
2022/07/07 19:43:55;;;;;;;;;;;;;;;23.06;39.70;103039.28;6166084;23;19983;-80
2022/07/07 19:46:20;;;;;;;;;;;;;;;23.06;39.70;103044.53;6139157;23;20241;-80
2022/07/07 19:48:45;;;;;;;;;;;;;;;23.05;39.61;103040.16;6163139;23;19920;-79
2022/07/07 19:51:11;;;;;;;;;;;;;;;23.05;39.84;103043.66;6187084;23;19912;-79
2022/07/07 19:53:36;;;;;;;;;;;;;;;23.06;39.61;103047.16;6139563;23;19913;-80
2022/07/07 19:56:04;;;;;;;;;;;;;;;23.03;39.60;103053.28;6196880;23;19928;-79
2022/07/07 19:58:29;;;;;;;;;;;;;;;23.02;39.37;103055.88;6194407;23;19940;-81
2022/07/07 20:00:54;;;;;;;;;;;;;;;23.02;39.54;103053.25;6169640;23;19912;-80
2022/07/07 20:03:20;;;;;;;;;;;;;;;23.01;39.47;103060.28;6167072;23;19908;-80
2022/07/07 20:05:45;;;;;;;;;;;;;;;22.98;39.17;103060.25;6190629;23;19912;-80
2022/07/07 20:08:10;;;;;;;;;;;;;;;23.02;39.41;103063.75;6140667;23;19939;-80
2022/07/07 20:10:36;;;;;;;;;;;;;;;22.96;39.45;103057.59;6189796;23;19915;-80
2022/07/07 20:13:02;;;;;;;;;;;;;;;22.99;39.16;103061.97;6144086;23;19912;-81
2022/07/07 20:15:28;;;;;;;;;;;;;;;22.96;39.14;103069.88;6190419;23;19912;-80
2022/07/07 20:17:53;;;;;;;;;;;;;;;22.97;39.23;103071.59;6139500;23;20214;-79
2022/07/07 20:20:19;;;;;;;;;;;;;;;22.91;39.39;103067.22;6138853;23;19951;-79
2022/07/07 20:22:44;;;;;;;;;;;;;;;22.91;39.39;103067.22;6163303;23;19913;-79
2022/07/07 20:25:10;;;;;;;;;;;;;;;22.89;39.34;103066.34;6137470;23;19913;-79
2022/07/07 20:27:35;;;;;;;;;;;;;;;22.95;39.25;103070.72;6137270;23;19967;-79
2022/07/07 20:30:01;;;;;;;;;;;;;;;22.94;39.25;103075.09;6186838;23;19943;-80
2022/07/07 20:32:26;;;;;;;;;;;;;;;22.93;39.42;103072.47;6189278;23;19956;-80
2022/07/07 20:34:51;;;;;;;;;;;;;;;22.91;39.49;103075.09;6165422;23;19943;-80
2022/07/07 20:37:17;;;;;;;;;;;;;;;22.92;39.38;103074.22;6169477;23;20035;-80
2022/07/07 20:55:04;;;;;;;;;;;;;;;22.89;39.98;103097.84;6238128;22;19922;-85
2022/07/07 20:57:35;;;;;;;;;;;;;;;22.87;39.91;103103.97;6248317;23;19923;-85
2022/07/07 21:00:22;;;;;;;;;;;;;;;22.89;39.47;103102.22;6262252;23;19916;-85
2022/07/07 21:03:20;;;;;;;;;;;;;;;22.89;39.77;103102.22;6273329;23;19976;-87
2022/07/07 21:05:53;;;;;;;;;;;;;;;22.90;39.96;103102.22;6272568;23;19907;-86
2022/07/07 21:08:32;;;;;;;;;;;;;;;22.91;39.69;103101.34;6220835;23;19904;-86
2022/07/07 21:17:31;;;;;;;;;;;;;;;22.92;39.77;103116.22;6274558;22;19922;-87
2022/07/07 21:23:46;;;;;;;;;;;;;;;22.90;40.06;103119.72;6241574;23;19914;-87
2022/07/07 21:29:24;;;;;;;;;;;;;;;22.89;40.21;103126.72;6242431;23;19922;-88
2022/07/07 21:32:25;;;;;;;;;;;;;;;22.89;40.05;103118.84;6154377;23;19908;-88
2022/07/07 22:08:27;;;;;;;;;;;;;;;22.77;39.33;103122.28;6264551;22;19923;-85
2022/07/07 22:14:37;;;;;;;;;;;;;;;22.78;39.52;103124.06;6212297;23;19939;-85
2022/07/07 22:17:37;;;;;;;;;;;;;;;22.78;39.95;103126.69;6127887;23;19908;-85
2022/07/07 22:32:48;;;;;;;;;;;;;;;22.75;40.11;103125.78;6123744;23;19917;-85
2022/07/07 22:35:33;;;;;;;;;;;;;;;22.75;40.06;103120.53;6041532;23;19950;-84
2022/07/07 22:38:22;;;;;;;;;;;;;;;22.74;40.19;103113.53;6036738;23;19919;-84
2022/07/07 22:46:57;;;;;;;;;;;;;;;22.73;40.00;103117.00;6008312;24;19954;-84
2022/07/07 22:49:43;;;;;;;;;;;;;;;22.73;40.21;103117.91;6014361;23;19926;-85
2022/07/07 22:58:24;;;;;;;;;;;;;;;22.74;40.49;103140.66;6008774;23;19927;-85
2022/07/07 23:01:17;;;;;;;;;;;;;;;22.73;39.81;103145.88;6043874;23;19918;-85
2022/07/07 23:04:05;;;;;;;;;;;;;;;22.72;40.56;103147.63;6066216;23;19918;-85
2022/07/07 23:06:53;;;;;;;;;;;;;;;22.71;39.89;103151.16;6065459;23;19918;-84
